createdAt,value
2018-07-07T00:01:22.849Z,5.63
2018-07-07T00:03:54.964Z,7.10
2018-07-07T00:06:27.145Z,6.70
2018-07-07T00:08:59.254Z,7.00
2018-07-07T00:11:31.228Z,6.20
2018-07-07T00:14:03.242Z,4.93
2018-07-07T00:16:36.721Z,6.43
2018-07-07T00:19:09.087Z,8.83
2018-07-07T00:21:41.089Z,6.17
2018-07-07T00:24:13.878Z,7.63
2018-07-07T00:26:45.926Z,8.43
2018-07-07T00:29:17.958Z,10.10
2018-07-07T00:31:49.880Z,12.80
2018-07-07T00:34:22.037Z,17.70
2018-07-07T00:36:55.405Z,14.20
2018-07-07T00:39:27.544Z,11.33
2018-07-07T00:41:59.575Z,15.17
2018-07-07T00:44:31.740Z,12.00
2018-07-07T00:47:10.113Z,9.53
2018-07-07T00:49:42.152Z,5.20
2018-07-07T00:52:14.137Z,6.40
2018-07-07T00:54:46.233Z,8.43
2018-07-07T00:57:19.369Z,6.03
2018-07-07T00:59:51.607Z,7.20
2018-07-07T01:02:24.597Z,6.50
2018-07-07T01:04:57.161Z,8.67
2018-07-07T01:07:33.699Z,8.53
2018-07-07T01:10:05.753Z,8.93
2018-07-07T01:12:37.702Z,7.37
2018-07-07T01:15:09.888Z,11.03
2018-07-07T01:17:42.186Z,9.90
2018-07-07T01:20:14.238Z,8.00
2018-07-07T01:22:46.464Z,18.87
2018-07-07T01:25:21.467Z,26.63
2018-07-07T01:27:53.648Z,37.07
2018-07-07T01:30:26.015Z,39.70
2018-07-07T01:32:59.534Z,27.23
2018-07-07T01:35:31.913Z,14.00
2018-07-07T01:38:07.408Z,9.80
2018-07-07T01:40:44.682Z,7.67
2018-07-07T01:43:18.880Z,6.70
2018-07-07T01:45:50.978Z,6.37
2018-07-07T01:48:23.142Z,6.73
2018-07-07T01:50:55.376Z,6.57
2018-07-07T01:53:27.379Z,7.70
2018-07-07T01:55:59.414Z,6.53
2018-07-07T01:58:32.760Z,6.83
2018-07-07T02:01:05.247Z,7.00
2018-07-07T02:03:37.164Z,6.93
2018-07-07T02:06:09.473Z,7.70
2018-07-07T02:08:43.088Z,6.13
2018-07-07T02:11:15.197Z,8.17
2018-07-07T02:13:47.229Z,6.47
2018-07-07T02:16:20.353Z,6.93
2018-07-07T02:18:52.813Z,6.43
2018-07-07T02:21:26.004Z,7.50
2018-07-07T02:23:58.692Z,6.23
2018-07-07T02:26:30.813Z,6.67
2018-07-07T02:29:02.870Z,6.23
2018-07-07T02:31:34.967Z,7.10
2018-07-07T02:34:06.992Z,9.40
2018-07-07T02:36:39.134Z,10.10
2018-07-07T02:39:12.311Z,11.53
2018-07-07T02:41:44.404Z,11.47
2018-07-07T02:44:17.191Z,11.27
2018-07-07T02:46:49.233Z,11.00
2018-07-07T02:49:22.029Z,10.30
2018-07-07T02:51:54.175Z,12.10
2018-07-07T02:54:26.452Z,10.27
2018-07-07T02:56:59.265Z,10.53
2018-07-07T02:59:33.799Z,12.80
2018-07-07T03:02:05.892Z,32.33
2018-07-07T03:04:37.979Z,62.17
2018-07-07T03:07:10.157Z,77.77
2018-07-07T03:09:45.805Z,48.97
2018-07-07T03:12:17.834Z,36.27
2018-07-07T03:14:49.854Z,22.40
2018-07-07T03:17:22.451Z,24.57
2018-07-07T03:19:55.574Z,17.20
2018-07-07T03:22:27.952Z,16.80
2018-07-07T03:25:01.019Z,10.50
2018-07-07T03:27:33.112Z,11.13
2018-07-07T03:30:05.129Z,10.73
2018-07-07T03:32:38.327Z,10.13
2018-07-07T03:35:11.782Z,11.03
2018-07-07T03:37:43.889Z,9.63
2018-07-07T03:40:48.459Z,10.47
2018-07-07T03:43:21.196Z,9.80
2018-07-07T03:45:53.592Z,11.07
2018-07-07T03:48:48.650Z,13.30
2018-07-07T03:51:20.773Z,21.43
2018-07-07T03:56:43.925Z,14.67
2018-07-07T03:59:15.962Z,11.67
2018-07-07T04:01:49.149Z,12.17
2018-07-07T04:04:21.314Z,11.83
2018-07-07T04:06:53.722Z,9.97
2018-07-07T04:09:26.570Z,9.47
2018-07-07T04:11:58.591Z,11.03
2018-07-07T04:14:30.644Z,9.73
2018-07-07T04:17:02.611Z,9.87
2018-07-07T04:19:36.280Z,10.83
2018-07-07T04:22:09.462Z,11.30
2018-07-07T04:24:41.619Z,10.90
2018-07-07T04:27:13.609Z,11.67
2018-07-07T04:29:45.645Z,10.70
2018-07-07T04:32:17.613Z,9.90
2018-07-07T04:34:49.671Z,9.73
2018-07-07T04:37:21.634Z,11.00
2018-07-07T04:39:53.742Z,10.30
2018-07-07T04:42:25.890Z,9.93
2018-07-07T04:44:58.003Z,9.43
2018-07-07T04:47:29.945Z,9.67
2018-07-07T04:50:02.017Z,11.57
2018-07-07T04:52:33.996Z,10.53
2018-07-07T04:55:07.044Z,9.13
2018-07-07T04:57:38.980Z,9.57
2018-07-07T05:00:11.037Z,9.37
2018-07-07T05:02:43.628Z,11.33
2018-07-07T05:05:15.696Z,10.47
2018-07-07T05:07:48.028Z,10.10
2018-07-07T05:10:20.027Z,10.27
2018-07-07T05:12:52.204Z,10.60
2018-07-07T05:15:24.381Z,9.23
2018-07-07T05:17:56.307Z,8.53
2018-07-07T05:20:28.357Z,9.27
2018-07-07T05:23:01.961Z,8.40
2018-07-07T05:25:34.297Z,10.97
2018-07-07T05:28:06.349Z,15.90
2018-07-07T05:30:38.415Z,21.13
2018-07-07T05:33:10.453Z,9.67
2018-07-07T05:35:42.493Z,10.47
2018-07-07T05:38:14.509Z,9.63
2018-07-07T05:40:46.601Z,10.07
2018-07-07T05:43:18.746Z,9.93
2018-07-07T05:45:50.769Z,10.10
2018-07-07T05:48:22.696Z,8.77
2018-07-07T05:50:54.651Z,9.07
2018-07-07T05:53:26.683Z,9.10
2018-07-07T05:55:58.907Z,9.90
2018-07-07T05:58:30.905Z,10.20
2018-07-07T06:01:03.477Z,10.40
2018-07-07T06:03:36.040Z,10.80
2018-07-07T06:06:08.018Z,9.50
2018-07-07T06:08:40.023Z,8.13
2018-07-07T06:11:12.023Z,8.33
2018-07-07T06:13:43.927Z,8.73
2018-07-07T06:16:15.995Z,9.10
2018-07-07T06:18:47.958Z,9.50
2018-07-07T06:21:20.866Z,11.10
2018-07-07T06:23:53.082Z,8.67
2018-07-07T06:26:26.036Z,11.30
2018-07-07T06:28:58.049Z,11.03
2018-07-07T06:31:30.705Z,9.63
2018-07-07T06:34:02.673Z,9.80
2018-07-07T06:36:34.678Z,9.90
2018-07-07T06:39:07.088Z,10.13
2018-07-07T06:41:39.187Z,9.17
2018-07-07T06:44:11.915Z,9.93
2018-07-07T06:46:43.995Z,9.73
2018-07-07T06:49:15.951Z,7.30
2018-07-07T06:51:47.978Z,7.73
2018-07-07T06:54:20.497Z,8.00
2018-07-07T06:56:52.535Z,7.30
2018-07-07T06:59:24.434Z,7.07
2018-07-07T07:01:56.682Z,7.27
2018-07-07T07:04:30.625Z,9.30
2018-07-07T07:07:02.619Z,9.47
2018-07-07T07:09:34.564Z,10.27
2018-07-07T07:12:06.800Z,8.50
2018-07-07T07:14:38.765Z,7.27
2018-07-07T07:17:10.769Z,5.70
2018-07-07T07:19:42.739Z,5.77
2018-07-07T07:22:14.753Z,6.77
2018-07-07T07:24:46.861Z,6.57
2018-07-07T07:27:18.986Z,5.47
2018-07-07T07:29:50.920Z,5.30
2018-07-07T07:32:22.936Z,5.77
2018-07-07T07:34:54.909Z,6.17
2018-07-07T07:37:26.988Z,6.10
2018-07-07T07:39:58.936Z,7.33
2018-07-07T07:42:31.143Z,6.67
2018-07-07T07:45:03.407Z,6.67
2018-07-07T07:47:35.399Z,5.80
2018-07-07T07:50:07.551Z,6.80
2018-07-07T07:52:39.650Z,7.47
2018-07-07T07:55:11.670Z,7.23
2018-07-07T07:57:43.679Z,7.83
2018-07-07T08:00:15.778Z,7.30
2018-07-07T08:02:48.340Z,7.93
2018-07-07T08:05:22.319Z,8.07
2018-07-07T08:07:54.405Z,8.57
2018-07-07T08:10:26.311Z,7.90
2018-07-07T08:12:58.400Z,8.10
2018-07-07T08:15:30.406Z,7.97
2018-07-07T08:18:02.380Z,9.23
2018-07-07T08:20:34.304Z,9.00
2018-07-07T08:23:06.443Z,9.37
2018-07-07T08:25:38.480Z,9.17
2018-07-07T08:28:10.599Z,8.33
2018-07-07T08:30:42.557Z,8.10
2018-07-07T08:33:14.587Z,8.93
2018-07-07T08:35:46.524Z,7.97
2018-07-07T08:38:20.384Z,8.43
2018-07-07T08:40:52.372Z,9.13
2018-07-07T08:43:24.441Z,8.83
2018-07-07T08:45:56.558Z,8.90
2018-07-07T08:48:28.657Z,7.93
2018-07-07T08:51:00.686Z,9.00
2018-07-07T08:53:32.762Z,8.83
2018-07-07T08:56:04.686Z,8.20
2018-07-07T08:58:36.930Z,8.03
2018-07-07T09:01:08.841Z,8.67
2018-07-07T09:03:41.837Z,8.67
2018-07-07T09:06:14.289Z,8.27
2018-07-07T09:08:46.290Z,8.27
2018-07-07T09:11:18.206Z,8.50
2018-07-07T09:13:50.372Z,9.30
2018-07-07T09:16:22.374Z,8.47
2018-07-07T09:18:54.435Z,9.20
2018-07-07T09:21:26.522Z,9.47
2018-07-07T09:23:58.915Z,9.87
2018-07-07T09:26:31.057Z,8.30
2018-07-07T09:29:03.112Z,8.40
2018-07-07T09:31:35.094Z,8.70
2018-07-07T09:34:07.249Z,8.43
2018-07-07T09:36:39.162Z,9.63
2018-07-07T09:39:11.235Z,7.73
2018-07-07T09:41:43.161Z,7.30
2018-07-07T09:44:15.260Z,7.80
2018-07-07T09:46:48.454Z,7.33
2018-07-07T09:49:20.445Z,7.63
2018-07-07T09:51:52.417Z,8.07
2018-07-07T09:54:24.407Z,7.73
2018-07-07T09:56:56.397Z,7.00
2018-07-07T09:59:28.487Z,6.97
2018-07-07T10:02:00.533Z,7.10
2018-07-07T10:04:33.024Z,7.93
2018-07-07T10:07:05.562Z,7.63
2018-07-07T10:09:37.561Z,6.93
2018-07-07T10:12:09.451Z,8.13
2018-07-07T10:14:41.498Z,8.00
2018-07-07T10:17:13.482Z,7.00
2018-07-07T10:19:45.502Z,6.33
2018-07-07T10:22:17.414Z,7.70
2018-07-07T10:24:49.426Z,6.67
2018-07-07T10:27:21.513Z,6.23
2018-07-07T10:29:53.937Z,6.67
2018-07-07T10:32:25.890Z,7.50
2018-07-07T10:34:58.211Z,6.27
2018-07-07T10:37:30.252Z,6.77
2018-07-07T10:40:02.337Z,6.63
2018-07-07T10:42:34.270Z,7.07
2018-07-07T10:45:06.483Z,7.47
2018-07-07T10:47:46.946Z,6.50
2018-07-07T10:50:18.929Z,6.63
2018-07-07T10:52:50.896Z,7.07
2018-07-07T10:55:23.758Z,7.83
2018-07-07T10:57:55.728Z,7.50
2018-07-07T11:00:28.039Z,7.60
2018-07-07T11:03:00.011Z,8.20
2018-07-07T11:05:32.072Z,8.37
2018-07-07T11:08:04.745Z,7.20
2018-07-07T11:10:36.790Z,6.97
2018-07-07T11:13:08.882Z,7.00
2018-07-07T11:15:41.133Z,9.23
2018-07-07T11:18:13.327Z,7.80
2018-07-07T11:20:45.335Z,8.17
2018-07-07T11:23:17.680Z,10.27
2018-07-07T11:25:49.791Z,10.03
2018-07-07T11:28:22.698Z,8.20
2018-07-07T11:30:54.774Z,7.17
2018-07-07T11:33:26.717Z,7.27
2018-07-07T11:35:58.723Z,8.53
2018-07-07T11:38:30.740Z,8.40
2018-07-07T11:41:03.772Z,6.90
2018-07-07T11:43:36.038Z,6.77
2018-07-07T11:46:08.164Z,6.17
2018-07-07T11:48:41.161Z,6.67
2018-07-07T11:51:13.313Z,6.87
2018-07-07T11:53:45.257Z,7.93
2018-07-07T11:56:17.367Z,8.00
2018-07-07T11:58:49.449Z,7.97
2018-07-07T12:01:21.630Z,7.27
2018-07-07T12:03:53.711Z,7.03
2018-07-07T12:06:25.800Z,8.70
2018-07-07T12:08:59.169Z,7.93
2018-07-07T12:11:31.274Z,20.50
2018-07-07T12:14:03.306Z,7.47
2018-07-07T12:16:36.491Z,6.63
2018-07-07T12:19:08.722Z,9.50
2018-07-07T12:21:40.870Z,8.67
2018-07-07T12:24:12.920Z,6.17
2018-07-07T12:26:45.112Z,6.77
2018-07-07T12:29:17.377Z,6.47
2018-07-07T12:31:50.977Z,8.00
2018-07-07T12:34:23.173Z,8.23
2018-07-07T12:36:55.409Z,13.10
2018-07-07T12:39:27.364Z,16.50
2018-07-07T12:42:00.215Z,17.93
2018-07-07T12:44:32.306Z,13.33
2018-07-07T12:47:04.800Z,10.73
2018-07-07T12:49:36.897Z,10.17
2018-07-07T12:52:09.208Z,7.53
2018-07-07T12:54:41.669Z,7.70
2018-07-07T12:57:13.695Z,7.87
2018-07-07T12:59:45.652Z,8.57
2018-07-07T13:02:19.637Z,8.67
2018-07-07T13:04:51.537Z,7.53
2018-07-07T13:07:23.561Z,6.23
2018-07-07T13:09:56.729Z,7.43
2018-07-07T13:12:29.606Z,5.87
2018-07-07T13:15:01.606Z,7.17
2018-07-07T13:17:33.789Z,7.80
2018-07-07T13:20:05.969Z,8.50
2018-07-07T13:22:38.409Z,8.83
2018-07-07T13:25:10.336Z,7.83
2018-07-07T13:27:43.414Z,8.20
2018-07-07T13:30:16.649Z,6.90
2018-07-07T13:32:50.902Z,8.20
2018-07-07T13:35:22.933Z,9.77
2018-07-07T13:37:59.553Z,7.57
2018-07-07T13:40:36.928Z,6.50
2018-07-07T13:43:16.544Z,6.30
2018-07-07T13:45:53.175Z,7.43
2018-07-07T13:48:28.842Z,6.13
2018-07-07T13:51:03.445Z,6.83
2018-07-07T13:53:40.731Z,11.03
2018-07-07T13:56:20.239Z,7.60
2018-07-07T13:58:59.978Z,10.40
2018-07-07T14:01:38.572Z,9.40
2018-07-07T14:04:18.573Z,7.27
2018-07-07T14:07:02.302Z,7.27
2018-07-07T14:09:37.627Z,5.47
2018-07-07T14:12:13.116Z,6.53
2018-07-07T14:14:57.631Z,6.53
2018-07-07T14:17:32.824Z,5.50
2018-07-07T14:20:09.702Z,5.67
2018-07-07T14:22:42.779Z,5.43
2018-07-07T14:25:24.244Z,5.93
2018-07-07T14:28:02.714Z,7.07
2018-07-07T14:30:39.989Z,8.40
2018-07-07T14:33:16.985Z,5.77
2018-07-07T14:35:53.484Z,5.50
2018-07-07T14:38:35.415Z,6.57
2018-07-07T14:41:18.338Z,5.27
2018-07-07T14:44:00.739Z,7.20
2018-07-07T14:46:37.837Z,6.07
2018-07-07T14:49:14.275Z,8.43
2018-07-07T14:51:46.525Z,6.40
2018-07-07T14:54:18.705Z,8.50
2018-07-07T14:56:50.853Z,7.17
2018-07-07T14:59:22.957Z,6.43
2018-07-07T15:01:56.253Z,7.30
2018-07-07T15:04:28.221Z,6.03
2018-07-07T15:07:01.218Z,6.73
2018-07-07T15:09:33.190Z,8.10
2018-07-07T15:12:05.364Z,7.73
2018-07-07T15:14:38.022Z,13.37
2018-07-07T15:17:10.053Z,5.70
2018-07-07T15:19:43.523Z,8.20
2018-07-07T15:22:15.863Z,7.03
2018-07-07T15:24:48.394Z,6.87
2018-07-07T15:27:20.370Z,7.53
2018-07-07T15:29:52.636Z,12.83
2018-07-07T15:32:25.153Z,10.27
2018-07-07T15:34:58.289Z,9.17
2018-07-07T15:37:32.356Z,9.13
2018-07-07T15:40:04.386Z,8.50
2018-07-07T15:42:36.613Z,6.67
2018-07-07T15:45:09.424Z,16.13
2018-07-07T15:47:44.087Z,7.77
2018-07-07T15:50:16.273Z,11.47
2018-07-07T15:52:48.426Z,7.33
2018-07-07T15:55:22.048Z,12.57
2018-07-07T15:57:54.888Z,11.57
2018-07-07T16:00:27.280Z,7.03
2018-07-07T16:03:00.704Z,6.17
2018-07-07T16:05:33.870Z,8.80
2018-07-07T16:08:07.071Z,6.60
2018-07-07T16:10:39.636Z,6.20
2018-07-07T16:13:13.100Z,6.93
2018-07-07T16:15:46.828Z,9.33
2018-07-07T16:18:18.908Z,5.63
2018-07-07T16:20:52.536Z,6.13
2018-07-07T16:23:24.624Z,7.93
2018-07-07T16:25:56.674Z,6.63
2018-07-07T16:28:28.699Z,8.60
2018-07-07T16:31:01.469Z,11.10
2018-07-07T16:33:43.330Z,6.83
2018-07-07T16:36:17.763Z,6.77
2018-07-07T16:38:50.342Z,7.17
2018-07-07T16:41:22.449Z,12.27
2018-07-07T16:43:55.142Z,7.20
2018-07-07T16:46:30.833Z,9.07
2018-07-07T16:49:04.609Z,8.77
2018-07-07T16:51:40.949Z,7.40
2018-07-07T16:57:03.650Z,45.10
2018-07-07T16:59:37.738Z,7.47
2018-07-07T17:02:11.701Z,26.20
2018-07-07T17:04:44.199Z,8.67
2018-07-07T17:07:19.164Z,7.67
2018-07-07T17:09:56.082Z,29.17
2018-07-07T17:12:30.805Z,14.10
2018-07-07T17:15:14.978Z,7.03
2018-07-07T17:21:11.244Z,10.37
2018-07-07T17:23:53.023Z,8.40
2018-07-07T17:26:26.203Z,14.00
2018-07-07T17:28:59.644Z,7.57
2018-07-07T17:31:32.514Z,22.57
2018-07-07T17:34:06.325Z,7.97
2018-07-07T17:36:44.606Z,7.90
2018-07-07T17:39:18.581Z,7.20
2018-07-07T17:41:54.338Z,7.47
2018-07-07T17:44:26.765Z,7.37
2018-07-07T17:46:59.813Z,8.33
2018-07-07T17:52:14.184Z,10.58
2018-07-07T17:54:48.483Z,8.53
2018-07-07T17:57:28.375Z,9.37
2018-07-07T18:00:01.581Z,9.03
2018-07-07T18:02:45.099Z,7.37
2018-07-07T18:13:45.949Z,8.63
2018-07-07T18:16:22.057Z,9.67
2018-07-07T18:19:00.889Z,10.30
2018-07-07T18:21:41.874Z,10.67
2018-07-07T18:24:20.839Z,9.83
2018-07-07T18:27:09.703Z,8.53
2018-07-07T18:35:22.135Z,12.73
2018-07-07T18:37:55.998Z,9.07
2018-07-07T18:40:30.988Z,10.08
2018-07-07T18:45:50.960Z,7.62
2018-07-07T18:48:35.682Z,6.62
2018-07-07T18:51:20.060Z,10.03
2018-07-07T18:53:53.475Z,7.53
2018-07-07T18:56:41.412Z,11.03
2018-07-07T18:59:25.958Z,9.38
2018-07-07T19:02:11.887Z,9.23
2018-07-07T19:04:56.681Z,8.33
2018-07-07T19:07:37.236Z,10.10
2018-07-07T19:12:54.451Z,7.70
2018-07-07T19:15:29.923Z,8.68
2018-07-07T19:23:40.695Z,8.98
2018-07-07T19:26:17.787Z,16.45
2018-07-07T19:28:51.868Z,9.18
2018-07-07T19:31:25.169Z,11.60
2018-07-07T19:34:01.914Z,8.78
2018-07-07T19:36:38.276Z,13.32
2018-07-07T19:39:10.364Z,9.53
2018-07-07T19:41:42.514Z,7.90
2018-07-07T19:44:14.686Z,8.03
2018-07-07T19:46:46.906Z,10.75
2018-07-07T19:49:19.472Z,9.28
2018-07-07T19:51:51.762Z,8.50
2018-07-07T19:54:23.893Z,10.23
2018-07-07T19:56:55.975Z,9.87
2018-07-07T19:59:28.223Z,8.93
2018-07-07T20:02:01.011Z,9.63
2018-07-07T20:04:34.411Z,8.20
2018-07-07T20:07:06.536Z,7.60
2018-07-07T20:09:39.180Z,11.17
2018-07-07T20:12:11.108Z,9.60
2018-07-07T20:14:43.392Z,6.93
2018-07-07T20:17:16.538Z,7.30
2018-07-07T20:21:04.823Z,7.83
2018-07-07T20:23:36.933Z,8.57
2018-07-07T20:26:09.214Z,9.37
2018-07-07T20:28:45.828Z,8.17
2018-07-07T20:31:21.124Z,7.67
2018-07-07T20:33:53.083Z,8.87
2018-07-07T20:36:25.371Z,7.30
2018-07-07T20:38:57.873Z,9.90
2018-07-07T20:41:30.034Z,9.27
2018-07-07T20:44:02.029Z,9.10
2018-07-07T20:46:34.087Z,13.47
2018-07-07T20:49:06.284Z,6.63
2018-07-07T20:51:39.090Z,9.07
2018-07-07T20:54:11.589Z,9.90
2018-07-07T20:56:43.700Z,6.73
2018-07-07T20:59:15.755Z,8.03
2018-07-07T21:01:48.750Z,8.87
2018-07-07T21:04:20.925Z,9.03
2018-07-07T21:06:53.654Z,9.17
2018-07-07T21:09:25.636Z,8.27
2018-07-07T21:11:58.022Z,9.33
2018-07-07T21:14:31.588Z,7.53
2018-07-07T21:17:03.700Z,8.77
2018-07-07T21:19:35.784Z,7.93
2018-07-07T21:22:08.899Z,8.40
2018-07-07T21:24:40.981Z,7.97
2018-07-07T21:27:13.883Z,16.60
2018-07-07T21:29:45.960Z,8.90
2018-07-07T21:32:18.572Z,7.17
2018-07-07T21:34:50.591Z,8.07
2018-07-07T21:37:22.753Z,8.17
2018-07-07T21:39:54.759Z,9.53
2018-07-07T21:42:26.866Z,7.57
2018-07-07T21:44:58.955Z,8.10
2018-07-07T21:47:31.746Z,6.90
2018-07-07T21:50:03.802Z,9.03
2018-07-07T21:52:44.871Z,11.10
2018-07-07T21:55:16.832Z,8.90
2018-07-07T21:57:53.351Z,7.97
2018-07-07T22:00:30.110Z,8.23
2018-07-07T22:03:06.445Z,9.57
2018-07-07T22:05:42.839Z,10.67
2018-07-07T22:08:19.486Z,9.20
2018-07-07T22:10:51.539Z,8.67
2018-07-07T22:13:26.531Z,11.07
2018-07-07T22:15:58.576Z,8.30
2018-07-07T22:18:30.978Z,7.37
2018-07-07T22:21:12.438Z,7.90
2018-07-07T22:23:44.908Z,7.60
2018-07-07T22:26:17.940Z,9.93
2018-07-07T22:28:50.481Z,7.83
2018-07-07T22:31:22.670Z,10.20
2018-07-07T22:33:55.085Z,8.37
2018-07-07T22:36:31.425Z,8.73
2018-07-07T22:39:03.910Z,9.47
2018-07-07T22:41:45.368Z,8.63
2018-07-07T22:44:17.507Z,7.70
2018-07-07T22:46:51.695Z,9.87
2018-07-07T22:49:24.040Z,8.33
2018-07-07T22:51:56.668Z,9.07
2018-07-07T22:54:59.990Z,8.10
2018-07-07T22:57:32.097Z,8.53
2018-07-07T23:00:04.307Z,9.17
2018-07-07T23:02:36.788Z,8.83
2018-07-07T23:05:22.254Z,8.60
2018-07-07T23:07:54.414Z,7.70
2018-07-07T23:10:26.605Z,9.00
2018-07-07T23:12:58.577Z,8.67
2018-07-07T23:15:31.510Z,8.87
2018-07-07T23:18:03.578Z,7.50
2018-07-07T23:20:35.601Z,9.37
2018-07-07T23:23:09.551Z,8.90
2018-07-07T23:25:41.997Z,7.33
2018-07-07T23:28:14.077Z,9.00
2018-07-07T23:30:46.684Z,8.57
2018-07-07T23:33:18.812Z,11.57
2018-07-07T23:35:51.880Z,8.67
2018-07-07T23:38:23.826Z,7.57
2018-07-07T23:40:55.989Z,8.03
2018-07-07T23:43:28.099Z,7.63
2018-07-07T23:46:00.858Z,8.20
2018-07-07T23:48:32.948Z,8.13
2018-07-07T23:51:05.049Z,9.00
2018-07-07T23:53:37.145Z,9.13
2018-07-07T23:56:09.826Z,7.87
2018-07-07T23:58:41.802Z,6.70
